KMFI

Marshfield Municipal Airport

Marshfield, Wisconsin, USA
METAR KMFI 231014Z AUTO 16007KT 1 3/4SM -SN BR OVC005 M01/M01 A3003 RMK AO2 CIG 004V009 P0002 I1000 T10061011 TSNO
Observed Flight Rules
Feb-23 @ 10:14 UTC (18 minutes ago) Instrument Flight Rules
Wind Visibility Clouds Conditions
160° at 7 knots 1 3/4 miles
  • Overcast at 500' AGL
  • Light Snow
  • Mist
Temperatures Readings Precipitation
Current -1°C / 30°F
Dewpoint -1°C / 30°F
Humidity 100%
Altimeter 30.03" Hg
Pressure 1017 hPa
Elevation 389
Current Rain 0.02
METAR KMFI 231014Z AUTO 16007KT 1 3/4SM -SN BR OVC005 M01/M01 A3003 RMK AO2 CIG 004V009 P0002 I1000 T10061011 TSNO
Observed Flight Rules
Feb-23 @ 10:14 UTC
(18 minutes ago)
IFR
Wind Visibility
160° at 7 knots 1 3/4 miles
Clouds
  • Overcast at 500' AGL
Conditions
  • Light Snow
  • Mist
Temperature Dewpoint
-1°C / 30°F -1°C / 30°F
Humidity Altimeter Pressure
100% 30.03" Hg 1017 hPa
Current Rain
0.02